createdAt,value
2022-09-30T00:00:27.969Z,98808.50
2022-09-30T00:02:02.603Z,98812.13
2022-09-30T00:03:36.924Z,98820.06
2022-09-30T00:05:10.462Z,98817.03
2022-09-30T00:06:44.129Z,98818.09
2022-09-30T00:08:17.281Z,98812.97
2022-09-30T00:09:50.432Z,98820.16
2022-09-30T00:11:25.465Z,98809.56
2022-09-30T00:12:59.012Z,98812.97
2022-09-30T00:14:32.266Z,98813.22
2022-09-30T00:16:05.069Z,98808.91
2022-09-30T00:17:39.956Z,98816.41
2022-09-30T00:19:14.535Z,98816.97
2022-09-30T00:20:46.735Z,98836.59
2022-09-30T00:22:19.891Z,98841.00
2022-09-30T00:23:52.364Z,98829.44
2022-09-30T00:25:25.586Z,98825.06
2022-09-30T00:26:58.825Z,98820.66
2022-09-30T00:28:32.626Z,98819.94
2022-09-30T00:30:06.555Z,98823.47
2022-09-30T00:31:40.250Z,98826.25
2022-09-30T00:33:13.925Z,98825.38
2022-09-30T00:34:47.089Z,98828.16
2022-09-30T00:36:20.290Z,98831.13
2022-09-30T00:37:55.255Z,98836.56
2022-09-30T00:39:30.218Z,98837.44
2022-09-30T00:41:04.671Z,98841.19
2022-09-30T00:42:41.722Z,98835.41
2022-09-30T00:44:44.814Z,98839.34
2022-09-30T00:46:22.561Z,98835.72
2022-09-30T00:47:57.755Z,98837.19
2022-09-30T00:49:31.383Z,98833.69
2022-09-30T00:51:07.973Z,98842.63
2022-09-30T00:52:40.822Z,98840.19
2022-09-30T00:54:19.308Z,98824.38
2022-09-30T00:55:58.879Z,98835.69
2022-09-30T00:57:32.266Z,98829.50
2022-09-30T00:59:10.040Z,98824.72
2022-09-30T01:00:42.988Z,98829.50
2022-09-30T01:02:16.664Z,98822.00
2022-09-30T01:03:55.175Z,98830.09
2022-09-30T01:05:32.539Z,98835.63
2022-09-30T01:07:08.486Z,98844.41
2022-09-30T01:08:42.043Z,98837.38
2022-09-30T01:10:15.320Z,98840.22
2022-09-30T01:11:49.500Z,98846.72
2022-09-30T01:13:27.433Z,98848.63
2022-09-30T01:15:02.152Z,98852.06
2022-09-30T01:16:51.157Z,98853.22
2022-09-30T01:18:32.288Z,98856.09
2022-09-30T01:20:35.895Z,98856.09
2022-09-30T01:22:29.708Z,98845.81
2022-09-30T01:24:55.354Z,98851.13
2022-09-30T01:26:48.388Z,98856.47
2022-09-30T01:28:53.058Z,98854.78
2022-09-30T01:30:49.650Z,98857.53
2022-09-30T01:32:32.769Z,98856.88
2022-09-30T01:34:15.524Z,98855.38
2022-09-30T01:36:11.458Z,98859.94
2022-09-30T01:37:52.617Z,98858.22
2022-09-30T01:39:35.330Z,98866.97
2022-09-30T01:41:12.961Z,98860.72
2022-09-30T01:42:52.869Z,98862.41
2022-09-30T01:44:35.213Z,98862.59
2022-09-30T01:46:20.944Z,98864.31
2022-09-30T01:48:02.111Z,98862.41
2022-09-30T01:49:44.112Z,98859.75
2022-09-30T01:51:23.168Z,98860.72
2022-09-30T01:53:09.140Z,98846.16
2022-09-30T01:54:48.414Z,98848.50
2022-09-30T01:56:25.683Z,98856.63
2022-09-30T01:58:02.853Z,98858.53
2022-09-30T01:59:43.691Z,98861.47
2022-09-30T02:01:25.456Z,98854.63
2022-09-30T02:03:02.721Z,98854.81
2022-09-30T02:04:40.498Z,98850.81
2022-09-30T02:06:20.601Z,98853.50
2022-09-30T02:07:58.449Z,98848.84
2022-09-30T02:09:40.125Z,98845.88
2022-09-30T02:11:18.278Z,98852.06
2022-09-30T02:12:57.745Z,98840.66
2022-09-30T02:14:38.227Z,98840.94
2022-09-30T02:16:18.148Z,98839.41
2022-09-30T02:17:58.563Z,98839.59
2022-09-30T02:19:37.126Z,98838.09
2022-09-30T02:21:16.325Z,98853.13
2022-09-30T02:22:52.130Z,98850.47
2022-09-30T02:24:28.475Z,98853.41
2022-09-30T02:26:07.880Z,98862.53
2022-09-30T02:27:46.765Z,98852.75
2022-09-30T02:29:25.084Z,98854.25
2022-09-30T02:31:01.143Z,98855.38
2022-09-30T02:32:39.894Z,98846.63
2022-09-30T02:34:19.327Z,98855.38
2022-09-30T02:35:58.844Z,98864.31
2022-09-30T02:37:36.985Z,98869.84
2022-09-30T02:39:15.336Z,98866.41
2022-09-30T02:40:52.152Z,98875.16
2022-09-30T02:42:28.704Z,98870.50
2022-09-30T02:44:02.789Z,98864.13
2022-09-30T02:45:44.425Z,98867.38
2022-09-30T02:47:26.833Z,98859.66
2022-09-30T02:49:04.758Z,98873.28
2022-09-30T02:50:48.372Z,98874.69
2022-09-30T02:52:28.958Z,98877.09
2022-09-30T02:54:06.435Z,98871.94
2022-09-30T02:55:50.148Z,98878.97
2022-09-30T02:57:31.408Z,98886.41
2022-09-30T02:59:03.577Z,98882.78
2022-09-30T03:00:36.867Z,98875.75
2022-09-30T03:02:10.152Z,98881.81
2022-09-30T03:03:46.279Z,98875.75
2022-09-30T03:05:19.502Z,98877.47
2022-09-30T03:06:54.307Z,98874.69
2022-09-30T03:08:27.823Z,98874.06
2022-09-30T03:10:00.999Z,98867.16
2022-09-30T03:11:34.342Z,98870.78
2022-09-30T03:13:21.804Z,98872.72
2022-09-30T03:15:18.129Z,98872.72
2022-09-30T03:17:17.319Z,98869.44
2022-09-30T03:19:06.781Z,98870.19
2022-09-30T03:20:54.271Z,98871.25
2022-09-30T03:22:49.158Z,98866.00
2022-09-30T03:24:58.934Z,98870.78
2022-09-30T03:26:42.696Z,98867.31
2022-09-30T03:28:23.099Z,98870.25
2022-09-30T03:30:05.379Z,98877.31
2022-09-30T03:31:47.043Z,98882.63
2022-09-30T03:33:26.364Z,98882.63
2022-09-30T03:35:06.093Z,98883.47
2022-09-30T03:36:42.810Z,98879.84
2022-09-30T03:38:29.580Z,98881.41
2022-09-30T03:40:10.206Z,98884.06
2022-09-30T03:41:48.151Z,98880.72
2022-09-30T03:43:27.432Z,98878.16
2022-09-30T03:45:07.852Z,98885.56
2022-09-30T03:46:46.082Z,98878.72
2022-09-30T03:48:19.785Z,98865.75
2022-09-30T03:49:57.270Z,98863.28
2022-09-30T03:51:31.329Z,98866.88
2022-09-30T03:53:05.442Z,98868.59
2022-09-30T03:54:50.397Z,98851.47
2022-09-30T03:56:27.546Z,98877.53
2022-09-30T03:58:00.801Z,98875.75
2022-09-30T03:59:34.048Z,98881.06
2022-09-30T04:01:07.398Z,98867.75
2022-09-30T04:02:40.624Z,98883.72
2022-09-30T04:04:13.706Z,98878.31
2022-09-30T04:05:47.364Z,98882.69
2022-09-30T04:07:20.650Z,98890.56
2022-09-30T04:08:54.011Z,98879.16
2022-09-30T04:10:28.535Z,98881.81
2022-09-30T04:12:02.199Z,98888.34
2022-09-30T04:13:35.459Z,98883.19
2022-09-30T04:15:09.619Z,98890.09
2022-09-30T04:16:43.159Z,98888.19
2022-09-30T04:18:16.425Z,98881.81
2022-09-30T04:19:49.814Z,98890.56
2022-09-30T04:21:22.924Z,98887.13
2022-09-30T04:22:57.541Z,98887.44
2022-09-30T04:24:30.923Z,98891.97
2022-09-30T04:26:06.817Z,98897.19
2022-09-30T04:27:39.975Z,98898.06
2022-09-30T04:29:13.154Z,98893.59
2022-09-30T04:30:46.456Z,98897.88
2022-09-30T04:32:19.587Z,98907.59
2022-09-30T04:33:57.099Z,98903.78
2022-09-30T04:35:30.389Z,98907.38
2022-09-30T04:37:04.481Z,98903.78
2022-09-30T04:38:39.577Z,98907.19
2022-09-30T04:40:13.321Z,98907.19
2022-09-30T04:41:47.842Z,98919.75
2022-09-30T04:43:23.594Z,98919.75
2022-09-30T04:44:58.258Z,98930.41
2022-09-30T04:46:31.381Z,98934.00
2022-09-30T04:48:04.616Z,98928.56
2022-09-30T04:49:37.922Z,98921.47
2022-09-30T04:51:11.047Z,98909.47
2022-09-30T04:52:44.693Z,98926.63
2022-09-30T04:54:17.740Z,98930.22
2022-09-30T04:55:51.048Z,98938.22
2022-09-30T04:57:25.588Z,98935.16
2022-09-30T04:58:58.776Z,98944.91
2022-09-30T05:00:31.991Z,98949.16
2022-09-30T05:02:05.539Z,98941.50
2022-09-30T05:03:39.391Z,98944.78
2022-09-30T05:05:12.450Z,98948.66
2022-09-30T05:06:45.611Z,98945.56
2022-09-30T05:08:19.914Z,98948.81
2022-09-30T05:09:53.497Z,98949.34
2022-09-30T05:11:27.846Z,98948.44
2022-09-30T05:13:02.414Z,98950.03
2022-09-30T05:14:35.646Z,98946.34
2022-09-30T05:16:09.831Z,98936.81
2022-09-30T05:17:43.025Z,98942.09
2022-09-30T05:19:16.229Z,98929.63
2022-09-30T05:20:51.094Z,98941.03
2022-09-30T05:22:25.347Z,98941.41
2022-09-30T05:23:58.634Z,98945.97
2022-09-30T05:25:31.779Z,98938.34
2022-09-30T05:27:05.018Z,98934.38
2022-09-30T05:28:39.712Z,98923.16
2022-09-30T05:30:13.025Z,98947.31
2022-09-30T05:31:46.178Z,98947.81
2022-09-30T05:33:19.436Z,98947.34
2022-09-30T05:34:52.677Z,98949.06
2022-09-30T05:36:25.869Z,98949.97
2022-09-30T05:37:59.017Z,98942.84
2022-09-30T05:39:32.320Z,98961.16
2022-09-30T05:41:11.476Z,98956.19
2022-09-30T05:42:45.049Z,98960.63
2022-09-30T05:44:19.744Z,98963.75
2022-09-30T05:45:56.226Z,98960.00
2022-09-30T05:47:29.424Z,98940.31
2022-09-30T05:49:02.634Z,98939.53
2022-09-30T05:50:35.922Z,98938.63
2022-09-30T05:52:09.266Z,98944.72
2022-09-30T05:53:42.790Z,98946.59
2022-09-30T05:55:16.220Z,98935.66
2022-09-30T05:56:49.388Z,98934.78
2022-09-30T05:58:21.779Z,98924.59
2022-09-30T05:59:56.514Z,98937.22
2022-09-30T06:01:29.756Z,98931.97
2022-09-30T06:03:02.958Z,98934.22
2022-09-30T06:04:36.508Z,98941.00
2022-09-30T06:06:09.968Z,98934.63
2022-09-30T06:07:43.133Z,98919.09
2022-09-30T06:09:16.323Z,98916.78
2022-09-30T06:10:49.738Z,98918.25
2022-09-30T06:12:23.309Z,98904.88
2022-09-30T06:13:57.442Z,98911.06
2022-09-30T06:15:32.461Z,98920.19
2022-09-30T06:17:06.531Z,98917.84
2022-09-30T06:18:41.397Z,98918.63
2022-09-30T06:20:14.627Z,98934.94
2022-09-30T06:21:47.666Z,98926.41
2022-09-30T06:23:20.810Z,98930.94
2022-09-30T06:24:55.453Z,98939.84
2022-09-30T06:26:28.947Z,98941.97
2022-09-30T06:28:02.736Z,98950.06
2022-09-30T06:29:36.065Z,98941.19
2022-09-30T06:31:11.636Z,98947.22
2022-09-30T06:32:45.316Z,98957.28
2022-09-30T06:34:19.556Z,98953.41
2022-09-30T06:35:52.755Z,98942.50
2022-09-30T06:37:26.745Z,98944.41
2022-09-30T06:39:00.032Z,98949.09
2022-09-30T06:40:33.194Z,98949.22
2022-09-30T06:42:06.423Z,98944.91
2022-09-30T06:43:55.956Z,98956.00
2022-09-30T06:45:37.288Z,98955.59
2022-09-30T06:47:21.641Z,98950.84
2022-09-30T06:49:06.816Z,98951.91
2022-09-30T06:50:54.241Z,98951.97
2022-09-30T06:52:31.962Z,98946.53
2022-09-30T06:54:05.445Z,98951.91
2022-09-30T06:55:39.836Z,98957.94
2022-09-30T06:57:13.031Z,98962.41
2022-09-30T06:58:46.658Z,98957.69
2022-09-30T07:00:20.102Z,98959.06
2022-09-30T07:01:53.823Z,98956.34
2022-09-30T07:03:30.424Z,98960.44
2022-09-30T07:05:04.484Z,98953.31
2022-09-30T07:06:38.644Z,98955.03
2022-09-30T07:08:11.811Z,98948.06
2022-09-30T07:09:44.954Z,98952.13
2022-09-30T07:11:18.282Z,98954.66
2022-09-30T07:12:52.331Z,98956.34
2022-09-30T07:14:25.530Z,98960.38
2022-09-30T07:15:59.088Z,98956.28
2022-09-30T07:17:32.339Z,98967.53
2022-09-30T07:19:10.393Z,98970.09
2022-09-30T07:20:48.614Z,98971.97
2022-09-30T07:22:32.057Z,98967.69
2022-09-30T07:24:05.726Z,98965.78
2022-09-30T07:25:39.099Z,98964.28
2022-09-30T07:27:13.775Z,98968.91
2022-09-30T07:28:47.463Z,98977.41
2022-09-30T07:30:27.094Z,98983.16
2022-09-30T07:32:01.308Z,98971.81
2022-09-30T07:33:35.677Z,98973.38
2022-09-30T07:35:10.554Z,98970.97
2022-09-30T07:36:43.951Z,98968.66
2022-09-30T07:38:17.719Z,98975.41
2022-09-30T07:39:50.902Z,98978.47
2022-09-30T07:41:27.392Z,98977.47
2022-09-30T07:43:01.975Z,98981.88
2022-09-30T07:44:37.238Z,98975.41
2022-09-30T07:46:12.923Z,98977.06
2022-09-30T07:47:49.798Z,98975.97
2022-09-30T07:49:26.652Z,98975.19
2022-09-30T07:51:01.346Z,98975.84
2022-09-30T07:52:34.518Z,98975.38
2022-09-30T07:54:09.866Z,98978.47
2022-09-30T07:55:43.179Z,98979.16
2022-09-30T07:57:16.636Z,98982.09
2022-09-30T07:58:49.222Z,98988.28
2022-09-30T08:00:41.515Z,98987.53
2022-09-30T08:02:18.278Z,98995.88
2022-09-30T08:03:54.824Z,98979.41
2022-09-30T08:05:28.071Z,98993.34
2022-09-30T08:07:03.562Z,98987.34
2022-09-30T08:08:38.158Z,98990.19
2022-09-30T08:10:11.942Z,98982.94
2022-09-30T08:11:45.202Z,98991.59
2022-09-30T08:13:20.067Z,98993.03
2022-09-30T08:14:53.415Z,98993.59
2022-09-30T08:16:27.608Z,98977.19
2022-09-30T08:18:01.122Z,98994.78
2022-09-30T08:19:35.357Z,98992.47
2022-09-30T08:21:09.171Z,98992.09
2022-09-30T08:22:43.746Z,98995.94
2022-09-30T08:24:17.566Z,98990.75
2022-09-30T08:25:50.821Z,98986.22
2022-09-30T08:27:24.292Z,98993.03
2022-09-30T08:28:57.569Z,98976.94
2022-09-30T08:30:31.063Z,98987.38
2022-09-30T08:32:04.305Z,98980.84
2022-09-30T08:33:38.368Z,98983.66
2022-09-30T08:35:11.590Z,98992.97
2022-09-30T08:36:46.696Z,98991.84
2022-09-30T08:38:21.301Z,98983.16
2022-09-30T08:39:54.978Z,98974.03
2022-09-30T08:42:19.041Z,98968.31
2022-09-30T08:44:07.762Z,98974.84
2022-09-30T08:45:52.093Z,98971.84
2022-09-30T08:47:41.340Z,98971.63
2022-09-30T08:49:39.472Z,98976.75
2022-09-30T08:51:29.343Z,98972.63
2022-09-30T08:53:07.183Z,98975.38
2022-09-30T08:54:48.517Z,98976.31
2022-09-30T08:56:25.225Z,98977.47
2022-09-30T08:57:59.628Z,98976.59
2022-09-30T08:59:37.318Z,98973.53
2022-09-30T09:01:18.362Z,98976.31
2022-09-30T09:02:55.044Z,98988.94
2022-09-30T09:04:28.307Z,98981.59
2022-09-30T09:06:13.312Z,98984.28
2022-09-30T09:07:54.805Z,98986.56
2022-09-30T09:09:50.259Z,98979.94
2022-09-30T09:11:43.337Z,98993.75
2022-09-30T09:13:33.759Z,98998.59
2022-09-30T09:15:22.866Z,98991.63
2022-09-30T09:17:06.937Z,98995.59
2022-09-30T09:18:47.446Z,98996.88
2022-09-30T09:20:23.900Z,99001.16
2022-09-30T09:22:00.973Z,98990.66
2022-09-30T09:23:34.655Z,98990.59
2022-09-30T09:25:15.740Z,98988.91
2022-09-30T09:26:51.284Z,98988.16
2022-09-30T09:28:33.853Z,98980.72
2022-09-30T09:30:09.623Z,98987.69
2022-09-30T09:31:43.087Z,98984.09
2022-09-30T09:33:21.882Z,98978.09
2022-09-30T09:34:59.771Z,98981.97
2022-09-30T09:36:47.551Z,98983.13
2022-09-30T09:38:27.591Z,98975.81
2022-09-30T09:40:13.174Z,98981.25
2022-09-30T09:41:55.597Z,98985.03
2022-09-30T09:43:39.517Z,98981.44
2022-09-30T09:45:22.278Z,98972.75
2022-09-30T09:47:05.129Z,98973.25
2022-09-30T09:48:38.456Z,98972.56
2022-09-30T09:50:18.477Z,98976.44
2022-09-30T09:52:05.866Z,98971.94
2022-09-30T09:53:45.391Z,98968.66
2022-09-30T09:55:23.968Z,98970.41
2022-09-30T09:56:57.282Z,98977.53
2022-09-30T09:58:31.043Z,98976.81
2022-09-30T10:00:21.094Z,98976.25
2022-09-30T10:01:55.588Z,98971.81
2022-09-30T10:03:29.114Z,98965.94
2022-09-30T10:05:03.893Z,98976.09
2022-09-30T10:06:48.702Z,98987.31
2022-09-30T10:08:23.603Z,98980.38
2022-09-30T10:10:09.664Z,98992.22
2022-09-30T10:11:44.250Z,98985.22
2022-09-30T10:13:20.717Z,98983.53
2022-09-30T10:14:59.861Z,98974.53
2022-09-30T10:16:36.037Z,98986.28
2022-09-30T10:18:20.367Z,98982.50
2022-09-30T10:19:56.095Z,98980.81
2022-09-30T10:21:30.832Z,98985.72
2022-09-30T10:23:11.178Z,98974.13
2022-09-30T10:24:44.699Z,98977.16
2022-09-30T10:26:20.561Z,98970.59
2022-09-30T10:27:58.489Z,98983.75
2022-09-30T10:29:33.798Z,98986.13
2022-09-30T10:31:08.816Z,98982.34
2022-09-30T10:32:42.151Z,98979.44
2022-09-30T10:34:26.953Z,98981.03
2022-09-30T10:36:09.658Z,98972.16
2022-09-30T10:37:52.582Z,98973.25
2022-09-30T10:39:29.203Z,98974.97
2022-09-30T10:41:04.246Z,98970.84
2022-09-30T10:42:41.913Z,98986.13
2022-09-30T10:44:20.634Z,98981.66
2022-09-30T10:46:20.778Z,98980.25
2022-09-30T10:47:51.173Z,98974.41
2022-09-30T10:49:29.560Z,98966.47
2022-09-30T10:51:03.675Z,98974.81
2022-09-30T10:52:40.391Z,98974.81
2022-09-30T10:54:46.671Z,98967.69
2022-09-30T10:56:39.284Z,98965.31
2022-09-30T10:58:24.363Z,98959.84
2022-09-30T11:00:01.810Z,98970.00
2022-09-30T11:01:40.047Z,98960.06
2022-09-30T11:03:18.276Z,98954.88
2022-09-30T11:04:59.999Z,98954.47
2022-09-30T11:06:38.514Z,98955.22
2022-09-30T11:08:16.841Z,98963.53
2022-09-30T11:10:00.261Z,98957.22
2022-09-30T11:11:38.974Z,98966.00
2022-09-30T11:13:17.194Z,98966.47
2022-09-30T11:14:58.850Z,98962.81
2022-09-30T11:16:44.288Z,98961.78
2022-09-30T11:18:23.174Z,98967.63
2022-09-30T11:20:09.258Z,98969.50
2022-09-30T11:21:47.919Z,98966.34
2022-09-30T11:23:28.898Z,98971.81
2022-09-30T11:25:08.768Z,98973.13
2022-09-30T11:26:51.880Z,98960.16
2022-09-30T11:28:41.518Z,98965.53
2022-09-30T11:30:20.403Z,98977.75
2022-09-30T11:32:00.381Z,98968.91
2022-09-30T11:33:48.675Z,98961.75
2022-09-30T11:35:33.548Z,98967.94
2022-09-30T11:37:16.535Z,98963.94
2022-09-30T11:39:10.208Z,98969.63
2022-09-30T11:40:53.968Z,98974.97
2022-09-30T11:42:39.004Z,98969.38
2022-09-30T11:44:27.862Z,98971.59
2022-09-30T11:46:19.151Z,98970.63
2022-09-30T11:48:13.921Z,98967.91
2022-09-30T11:50:07.780Z,98974.75
2022-09-30T11:51:48.296Z,98977.47
2022-09-30T11:53:36.279Z,98986.50
2022-09-30T11:55:31.986Z,98976.66
2022-09-30T11:57:12.507Z,98972.78
2022-09-30T11:58:51.302Z,98985.75
2022-09-30T12:00:24.585Z,98972.44
2022-09-30T12:02:02.943Z,98976.66
2022-09-30T12:03:41.872Z,98978.75
2022-09-30T12:05:20.474Z,98967.72
2022-09-30T12:06:57.801Z,98968.91
2022-09-30T12:08:35.178Z,98977.28
2022-09-30T12:10:21.668Z,98964.06
2022-09-30T12:11:59.896Z,98964.06
2022-09-30T12:13:39.092Z,98973.59
2022-09-30T12:15:18.317Z,98972.22
2022-09-30T12:16:52.157Z,98978.88
2022-09-30T12:18:31.620Z,98974.28
2022-09-30T12:20:12.004Z,98976.13
2022-09-30T12:21:51.273Z,98980.88
2022-09-30T12:23:32.892Z,98975.53
2022-09-30T12:25:15.748Z,98974.53
2022-09-30T12:26:49.486Z,98975.50
2022-09-30T12:28:48.516Z,98977.53
2022-09-30T12:30:24.499Z,98974.75
2022-09-30T12:32:12.193Z,98977.25
2022-09-30T12:34:00.391Z,98976.03
2022-09-30T12:36:03.589Z,98982.84
2022-09-30T12:37:55.103Z,98977.38
2022-09-30T12:40:06.188Z,98977.59
2022-09-30T12:41:54.106Z,98983.53
2022-09-30T12:44:25.336Z,98983.00
2022-09-30T12:46:15.816Z,98991.66
2022-09-30T12:47:51.713Z,98983.13
2022-09-30T12:49:27.844Z,98985.72
2022-09-30T12:51:01.808Z,98990.66
2022-09-30T12:52:38.564Z,98989.25
2022-09-30T12:54:17.322Z,98988.69
2022-09-30T12:55:51.355Z,98992.41
2022-09-30T12:57:28.311Z,98990.47
2022-09-30T12:59:03.888Z,98989.75
2022-09-30T13:00:37.833Z,98999.91
2022-09-30T13:02:31.863Z,99005.16
2022-09-30T13:04:18.922Z,98994.38
2022-09-30T13:05:58.054Z,98990.91
2022-09-30T13:07:34.747Z,98993.94
2022-09-30T13:09:22.580Z,98989.50
2022-09-30T13:11:00.380Z,98998.72
2022-09-30T13:13:09.962Z,98992.44
2022-09-30T13:14:44.551Z,98993.63
2022-09-30T13:16:56.512Z,98998.25
2022-09-30T13:19:02.117Z,99002.84
2022-09-30T13:20:55.325Z,98997.38
2022-09-30T13:22:58.722Z,98998.63
2022-09-30T13:25:05.297Z,98999.94
2022-09-30T13:26:46.533Z,98999.41
2022-09-30T13:28:32.205Z,99006.25
2022-09-30T13:30:36.340Z,99016.47
2022-09-30T13:32:10.802Z,99006.63
2022-09-30T13:33:47.126Z,98989.28
2022-09-30T13:35:32.941Z,99005.41
2022-09-30T13:37:07.214Z,99008.81
2022-09-30T13:38:41.519Z,99009.28
2022-09-30T13:40:32.963Z,99011.72
2022-09-30T13:42:26.994Z,99026.75
2022-09-30T13:44:08.202Z,99016.19
2022-09-30T13:45:45.093Z,99018.91
2022-09-30T13:47:31.136Z,99015.84
2022-09-30T13:49:12.180Z,99015.44
2022-09-30T13:50:50.482Z,99020.91
2022-09-30T13:52:29.175Z,99024.66
2022-09-30T13:54:09.048Z,99033.88
2022-09-30T13:55:46.372Z,99035.56
2022-09-30T13:57:25.226Z,98997.88
2022-09-30T13:59:28.950Z,99029.75
2022-09-30T14:01:12.941Z,99031.75
2022-09-30T14:03:23.836Z,99025.09
2022-09-30T14:05:26.578Z,99031.00
2022-09-30T14:07:11.535Z,99028.28
2022-09-30T14:09:05.870Z,99020.28
2022-09-30T14:10:54.356Z,99026.97
2022-09-30T14:12:51.878Z,99025.63
2022-09-30T14:15:02.476Z,99013.94
2022-09-30T14:16:58.367Z,99022.97
2022-09-30T14:18:54.822Z,99030.00
2022-09-30T14:20:41.254Z,99034.78
2022-09-30T14:22:16.914Z,99033.59
2022-09-30T14:24:00.576Z,99036.03
2022-09-30T14:25:41.362Z,99030.94
2022-09-30T14:27:34.638Z,99043.91
2022-09-30T14:29:18.653Z,99038.81
2022-09-30T14:31:13.324Z,99044.63
2022-09-30T14:32:49.400Z,99040.25
2022-09-30T14:34:25.794Z,99044.13
2022-09-30T14:36:03.234Z,99049.78
2022-09-30T14:37:43.387Z,99050.31
2022-09-30T14:39:21.221Z,99051.53
2022-09-30T14:40:57.209Z,99059.03
2022-09-30T14:42:35.025Z,99059.03
2022-09-30T14:44:08.793Z,99057.34
2022-09-30T14:45:47.414Z,99064.16
2022-09-30T14:47:23.194Z,99059.75
2022-09-30T14:49:01.859Z,99064.69
2022-09-30T14:50:43.359Z,99073.41
2022-09-30T14:52:36.291Z,99074.13
2022-09-30T14:54:20.451Z,99072.78
2022-09-30T14:55:53.198Z,99064.25
2022-09-30T14:57:27.121Z,99069.53
2022-09-30T14:59:01.822Z,99075.13
2022-09-30T15:00:36.728Z,99078.03
2022-09-30T15:02:18.543Z,99070.91
2022-09-30T15:03:55.670Z,99080.94
2022-09-30T15:05:28.686Z,99093.03
2022-09-30T15:07:04.508Z,99087.13
2022-09-30T15:08:37.744Z,99089.84
2022-09-30T15:10:20.112Z,99101.03
2022-09-30T15:11:53.598Z,99100.69
2022-09-30T15:13:31.254Z,99097.09
2022-09-30T15:15:25.396Z,99098.75
2022-09-30T15:17:03.756Z,99097.03
2022-09-30T15:18:47.953Z,99100.19
2022-09-30T15:20:30.977Z,99095.50
2022-09-30T15:22:09.652Z,99095.56
2022-09-30T15:23:45.870Z,99094.66
2022-09-30T15:25:22.294Z,99105.13
2022-09-30T15:26:57.189Z,99108.22
2022-09-30T15:28:30.715Z,99099.00
2022-09-30T15:30:23.335Z,99104.66
2022-09-30T15:32:01.462Z,99101.94
2022-09-30T15:33:35.878Z,99107.59
2022-09-30T15:35:16.663Z,99104.47
2022-09-30T15:36:58.934Z,99119.09
2022-09-30T15:38:33.704Z,99112.00
2022-09-30T15:40:34.124Z,99120.22
2022-09-30T15:42:10.637Z,99115.81
2022-09-30T15:43:46.296Z,99121.25
2022-09-30T15:45:35.129Z,99109.69
2022-09-30T15:47:11.847Z,99114.91
2022-09-30T15:48:44.912Z,99120.34
2022-09-30T15:50:43.253Z,99125.22
2022-09-30T15:52:29.571Z,99129.22
2022-09-30T15:54:04.045Z,99127.44
2022-09-30T15:55:41.877Z,99125.66
2022-09-30T15:57:48.866Z,99127.59
2022-09-30T15:59:22.751Z,99134.75
2022-09-30T16:01:15.330Z,99136.50
2022-09-30T16:02:48.738Z,99125.22
2022-09-30T16:04:26.867Z,99136.19
2022-09-30T16:06:07.678Z,99132.53
2022-09-30T16:07:43.546Z,99134.31
2022-09-30T16:09:23.421Z,99128.66
2022-09-30T16:10:58.465Z,99131.28
2022-09-30T16:12:36.255Z,99144.06
2022-09-30T16:14:20.495Z,99149.41
2022-09-30T16:15:57.268Z,99148.47
2022-09-30T16:17:33.994Z,99144.13
2022-09-30T16:19:10.605Z,99148.31
2022-09-30T16:20:57.489Z,99145.63
2022-09-30T16:22:52.910Z,99159.34
2022-09-30T16:24:48.659Z,99151.75
2022-09-30T16:26:28.398Z,99156.34
2022-09-30T16:28:07.142Z,99160.34
2022-09-30T16:29:40.767Z,99166.94
2022-09-30T16:31:15.478Z,99165.13
2022-09-30T16:32:51.888Z,99166.69
2022-09-30T16:34:27.872Z,99172.09
2022-09-30T16:36:01.172Z,99170.44
2022-09-30T16:37:35.250Z,99179.41
2022-09-30T16:39:13.888Z,99174.88
2022-09-30T16:40:47.355Z,99173.88
2022-09-30T16:42:20.250Z,99180.00
2022-09-30T16:43:53.440Z,99185.50
2022-09-30T16:45:29.530Z,99179.53
2022-09-30T16:47:02.915Z,99198.56
2022-09-30T16:48:36.203Z,99188.59
2022-09-30T16:50:23.634Z,99193.13
2022-09-30T16:51:57.017Z,99193.94
2022-09-30T16:53:30.385Z,99198.03
2022-09-30T16:55:03.634Z,99200.13
2022-09-30T16:56:37.157Z,99206.66
2022-09-30T16:58:13.359Z,99211.47
2022-09-30T16:59:46.640Z,99199.50
2022-09-30T17:01:23.480Z,99200.88
2022-09-30T17:02:56.901Z,99200.50
2022-09-30T17:04:33.276Z,99209.41
2022-09-30T17:06:06.780Z,99206.84
2022-09-30T17:07:39.975Z,99215.06
2022-09-30T17:09:13.285Z,99209.19
2022-09-30T17:10:50.083Z,99208.63
2022-09-30T17:12:23.524Z,99215.16
2022-09-30T17:13:56.801Z,99219.22
2022-09-30T17:15:32.135Z,99221.09
2022-09-30T17:17:09.823Z,99219.19
2022-09-30T17:18:46.368Z,99232.44
2022-09-30T17:20:21.495Z,99224.13
2022-09-30T17:21:54.656Z,99227.81
2022-09-30T17:23:28.152Z,99228.63
2022-09-30T17:25:01.456Z,99235.28
2022-09-30T17:26:34.989Z,99246.56
2022-09-30T17:28:09.086Z,99253.63
2022-09-30T17:29:42.431Z,99259.28
2022-09-30T17:31:16.162Z,99245.84
2022-09-30T17:32:50.899Z,99268.84
2022-09-30T17:34:24.634Z,99268.88
2022-09-30T17:36:02.350Z,99268.38
2022-09-30T17:37:38.508Z,99275.59
2022-09-30T17:39:13.442Z,99292.34
2022-09-30T17:41:04.508Z,99284.03
2022-09-30T17:42:58.130Z,99288.19
2022-09-30T17:44:32.612Z,99287.09
2022-09-30T17:46:06.166Z,99299.81
2022-09-30T17:47:41.459Z,99292.09
2022-09-30T17:49:21.896Z,99297.25
2022-09-30T17:50:57.200Z,99294.91
2022-09-30T17:52:34.357Z,99296.72
2022-09-30T17:54:08.395Z,99292.75
2022-09-30T17:55:42.207Z,99297.66
2022-09-30T17:57:15.413Z,99303.75
2022-09-30T17:58:50.831Z,99305.91
2022-09-30T18:00:24.764Z,99307.47
2022-09-30T18:01:58.083Z,99294.88
2022-09-30T18:03:32.493Z,99300.03
2022-09-30T18:05:07.574Z,99301.94
2022-09-30T18:06:40.987Z,99308.81
2022-09-30T18:08:14.242Z,99310.53
2022-09-30T18:09:47.469Z,99309.66
2022-09-30T18:11:22.235Z,99310.53
2022-09-30T18:12:56.529Z,99317.13
2022-09-30T18:14:35.336Z,99319.28
2022-09-30T18:16:09.133Z,99322.19
2022-09-30T18:17:42.604Z,99316.81
2022-09-30T18:19:15.867Z,99326.84
2022-09-30T18:20:52.185Z,99329.41
2022-09-30T18:22:25.502Z,99333.66
2022-09-30T18:23:58.980Z,99328.97
2022-09-30T18:25:32.369Z,99336.00
2022-09-30T18:27:04.800Z,99342.34
2022-09-30T18:28:38.175Z,99335.44
2022-09-30T18:30:13.250Z,99342.97
2022-09-30T18:31:46.663Z,99343.69
2022-09-30T18:33:21.685Z,99343.91
2022-09-30T18:34:54.938Z,99343.91
2022-09-30T18:36:32.477Z,99350.97
2022-09-30T18:38:06.686Z,99334.88
2022-09-30T18:39:40.166Z,99344.97
2022-09-30T18:41:13.519Z,99350.56
2022-09-30T18:42:47.219Z,99351.88
2022-09-30T18:44:20.487Z,99352.09
2022-09-30T18:45:56.765Z,99355.97
2022-09-30T18:47:30.460Z,99362.22
2022-09-30T18:49:03.755Z,99374.75
2022-09-30T18:50:37.524Z,99374.25
2022-09-30T18:52:12.240Z,99380.03
2022-09-30T18:53:45.743Z,99374.88
2022-09-30T18:55:19.186Z,99377.56
2022-09-30T18:56:52.504Z,99372.19
2022-09-30T18:58:25.820Z,99375.88
2022-09-30T18:59:59.091Z,99380.47
2022-09-30T19:01:33.150Z,99387.78
2022-09-30T19:03:10.296Z,99389.69
2022-09-30T19:04:43.477Z,99382.00
2022-09-30T19:06:16.981Z,99383.81
2022-09-30T19:07:53.649Z,99391.00
2022-09-30T19:09:28.391Z,99378.66
2022-09-30T19:11:10.701Z,99378.34
2022-09-30T19:12:45.827Z,99403.13
2022-09-30T19:14:20.037Z,99406.03
2022-09-30T19:15:53.426Z,99413.50
2022-09-30T19:17:26.660Z,99413.50
2022-09-30T19:19:01.335Z,99420.59
2022-09-30T19:20:37.607Z,99421.44